Time;durP1;ratioP1;P1;durP2;ratioP2;P2;SDS_P1;SDS_P2;PMS_P1;PMS_P2;Temp;Humidity;BMP_temperature;BMP_pressure;BME280_temperature;BME280_humidity;BME280_pressure;Samples;Min_cycle;Max_cycle;Signal;HPM_P1;HPM_P2
2023/06/04 00:01:36;;;;;;;;;8.00;8.00;;;;;20.75;39.79;100918.56;6228872;22;44762;-83
2023/06/04 00:04:01;;;;;;;;;5.67;5.67;;;;;20.81;39.72;100925.66;6228526;22;45344;-84
2023/06/04 00:06:29;;;;;;;;;6.33;6.33;;;;;20.81;39.99;100926.53;6202935;22;45263;-83
2023/06/04 00:08:55;;;;;;;;;5.00;5.00;;;;;20.75;39.93;100922.16;6227611;22;46232;-84
2023/06/04 00:11:35;;;;;;;;;8.00;5.33;;;;;20.76;40.16;100917.63;6200829;22;45381;-84
2023/06/04 00:14:01;;;;;;;;;5.33;5.33;;;;;20.64;40.84;100912.53;6227307;22;45304;-82
2023/06/04 00:16:29;;;;;;;;;5.33;5.33;;;;;20.54;41.00;100910.06;6226690;22;45340;-83
2023/06/04 00:18:54;;;;;;;;;8.00;7.67;;;;;20.48;41.05;100906.59;6222513;22;45287;-84
2023/06/04 00:21:20;;;;;;;;;7.00;7.00;;;;;20.41;41.62;100911.25;6222690;22;45389;-84
2023/06/04 00:23:45;;;;;;;;;7.67;7.67;;;;;20.31;41.62;100915.09;6199951;22;45498;-84
2023/06/04 00:26:11;;;;;;;;;7.33;7.00;;;;;20.34;41.59;100931.22;6229103;22;45395;-83
2023/06/04 00:28:36;;;;;;;;;8.00;8.00;;;;;20.27;42.02;100929.59;6227707;22;45244;-82
2023/06/04 00:31:05;;;;;;;;;7.00;6.33;;;;;20.21;42.00;100921.66;6226713;22;45172;-84
2023/06/04 00:33:31;;;;;;;;;8.33;7.33;;;;;20.16;42.01;100930.75;6200881;22;45145;-84
2023/06/04 00:35:57;;;;;;;;;6.00;6.00;;;;;20.12;42.07;100931.72;6200914;22;44996;-84
2023/06/04 00:38:22;;;;;;;;;6.33;5.00;;;;;20.01;42.00;100917.56;6201665;22;46978;-84
2023/06/04 00:40:47;;;;;;;;;4.00;4.00;;;;;20.04;42.25;100927.44;6202245;22;45293;-84
2023/06/04 00:43:13;;;;;;;;;7.33;6.00;;;;;19.99;41.76;100931.09;6229686;22;45408;-84
2023/06/04 00:45:39;;;;;;;;;6.00;6.00;;;;;20.03;41.91;100931.94;6229900;22;44918;-85
2023/06/04 00:48:06;;;;;;;;;7.33;6.00;;;;;20.03;41.78;100937.31;6203187;22;46731;-85
2023/06/04 00:50:33;;;;;;;;;6.00;6.00;;;;;19.99;42.11;100930.22;6201846;22;45383;-84
2023/06/04 00:53:01;;;;;;;;;6.00;6.00;;;;;19.99;41.78;100931.09;6226621;22;45238;-84
2023/06/04 00:55:28;;;;;;;;;6.00;6.00;;;;;20.02;41.76;100930.16;6226284;22;45287;-84
2023/06/04 00:57:53;;;;;;;;;5.00;5.00;;;;;20.03;42.05;100926.53;6228125;22;45491;-84
2023/06/04 01:00:20;;;;;;;;;5.00;5.00;;;;;20.06;41.48;100931.00;6223809;22;45650;-84
2023/06/04 01:02:51;;;;;;;;;8.00;6.33;;;;;20.03;41.48;100926.53;6199343;22;45402;-84
2023/06/04 01:05:47;;;;;;;;;6.33;6.33;;;;;20.11;41.41;100926.34;6221333;22;45312;-83
2023/06/04 01:08:12;;;;;;;;;6.00;6.00;;;;;19.96;41.67;100931.19;6225057;22;47008;-83
2023/06/04 01:10:53;;;;;;;;;5.67;5.67;;;;;19.97;42.16;100921.25;6223889;22;45372;-83
2023/06/04 01:13:18;;;;;;;;;5.00;5.00;;;;;19.86;41.56;100923.31;6200759;22;45410;-84
2023/06/04 01:15:44;;;;;;;;;3.67;3.67;;;;;19.83;41.64;100917.97;6224422;22;45428;-83
2023/06/04 01:18:27;;;;;;;;;3.00;3.00;;;;;19.90;41.47;100914.25;6223630;22;47191;-83
2023/06/04 01:20:58;;;;;;;;;7.67;5.00;;;;;19.90;41.70;100925.03;6224865;22;45634;-85
2023/06/04 01:23:33;;;;;;;;;5.33;5.33;;;;;19.92;41.63;100924.06;6223848;22;45387;-84
2023/06/04 01:26:04;;;;;;;;;8.67;7.00;;;;;19.85;41.50;100926.94;6223563;22;45415;-85
2023/06/04 01:28:34;;;;;;;;;4.67;4.67;;;;;19.85;41.66;100927.81;6198967;22;46912;-84
2023/06/04 01:31:01;;;;;;;;;5.00;5.00;;;;;19.75;41.48;100908.25;6198999;22;45217;-85
2023/06/04 01:33:27;;;;;;;;;5.67;5.67;;;;;19.77;41.53;100924.38;6248229;22;45327;-83
2023/06/04 01:35:53;;;;;;;;;5.67;5.67;;;;;19.75;41.61;100920.84;6225890;22;45329;-83
2023/06/04 01:38:19;;;;;;;;;5.00;5.00;;;;;19.71;41.84;100920.03;6226767;22;47920;-84
2023/06/04 01:40:45;;;;;;;;;6.33;4.00;;;;;19.72;41.57;100923.63;6200923;22;45483;-84
2023/06/04 01:43:11;;;;;;;;;5.67;4.67;;;;;19.64;41.88;100923.72;6228942;22;44753;-84
2023/06/04 01:45:36;;;;;;;;;4.33;4.00;;;;;19.66;41.50;100929.09;6226455;22;45252;-84
2023/06/04 01:48:03;;;;;;;;;7.00;7.00;;;;;19.67;42.22;100933.56;6226392;22;45480;-84
2023/06/04 01:50:30;;;;;;;;;5.00;5.00;;;;;19.69;41.74;100929.94;6200212;22;45372;-84
2023/06/04 01:52:56;;;;;;;;;5.67;5.00;;;;;19.62;41.88;100925.56;6176252;22;45372;-83
2023/06/04 01:55:24;;;;;;;;;7.00;5.33;;;;;19.66;41.90;100938.06;6227588;22;44835;-84
2023/06/04 01:57:50;;;;;;;;;5.67;5.67;;;;;19.62;41.93;100924.69;6226903;22;47360;-85
2023/06/04 02:00:16;;;;;;;;;5.00;5.00;;;;;19.53;41.70;100917.66;6229770;22;45268;-84
2023/06/04 02:02:47;;;;;;;;;6.33;6.00;;;;;19.61;42.14;100931.88;6229259;22;44642;-84
2023/06/04 02:05:14;;;;;;;;;5.00;4.67;;;;;19.56;41.81;100936.50;6226724;22;45208;-84
2023/06/04 02:07:44;;;;;;;;;6.67;5.67;;;;;19.56;41.69;100928.41;6202217;22;47184;-83
2023/06/04 02:10:12;;;;;;;;;6.00;6.00;;;;;19.59;42.51;100933.72;6202074;22;45635;-83
2023/06/04 02:12:39;;;;;;;;;6.00;6.00;;;;;19.42;43.17;100919.69;6203952;22;45466;-83
2023/06/04 02:15:09;;;;;;;;;4.00;4.00;;;;;19.46;42.42;100940.28;6229090;22;45407;-83
2023/06/04 02:17:42;;;;;;;;;5.00;5.00;;;;;19.42;42.70;100928.66;6200488;22;47279;-84
2023/06/04 02:20:11;;;;;;;;;6.00;5.33;;;;;19.29;43.10;100946.91;6228068;22;44990;-84
2023/06/04 02:22:37;;;;;;;;;6.00;6.00;;;;;19.21;43.02;100947.94;6227892;22;45449;-85
2023/06/04 02:25:03;;;;;;;;;8.67;5.67;;;;;19.24;43.29;100940.69;6226365;22;45820;-85
2023/06/04 02:27:28;;;;;;;;;6.00;6.00;;;;;19.27;43.14;100940.66;6226206;22;45375;-84
2023/06/04 02:29:53;;;;;;;;;5.00;5.00;;;;;19.23;43.62;100932.63;6227246;22;45679;-85
2023/06/04 02:32:19;;;;;;;;;2.00;2.00;;;;;19.13;43.64;100937.31;6237656;22;45403;-84
2023/06/04 02:34:44;;;;;;;;;6.67;6.00;;;;;19.14;43.87;100939.06;6255881;22;45340;-84
2023/06/04 02:37:10;;;;;;;;;6.33;6.33;;;;;19.17;43.77;100936.34;6258302;22;48336;-83
2023/06/04 02:39:35;;;;;;;;;5.33;5.33;;;;;19.15;43.14;100940.88;6233104;22;44773;-84
2023/06/04 02:42:01;;;;;;;;;7.00;5.00;;;;;19.06;43.26;100931.13;6232956;22;45631;-84
2023/06/04 02:44:28;;;;;;;;;8.33;7.00;;;;;19.07;43.57;100943.69;6260446;22;45354;-83
2023/06/04 02:46:53;;;;;;;;;6.00;6.00;;;;;19.12;42.71;100946.31;6232528;22;47101;-84
2023/06/04 02:49:18;;;;;;;;;7.00;5.00;;;;;19.04;43.31;100941.03;6258414;22;45278;-84
2023/06/04 02:51:47;;;;;;;;;4.67;4.67;;;;;19.14;43.19;100949.88;6256855;22;45350;-86
2023/06/04 02:54:12;;;;;;;;;4.00;4.00;;;;;19.03;42.77;100950.06;6260478;22;45429;-83
2023/06/04 02:56:38;;;;;;;;;7.00;5.00;;;;;19.04;43.03;100953.63;6257842;22;45383;-84
2023/06/04 02:59:04;;;;;;;;;6.33;6.00;;;;;18.98;43.27;100950.13;6256599;22;45325;-83
2023/06/04 03:01:30;;;;;;;;;6.00;6.00;;;;;18.96;43.78;100948.38;6257014;22;45363;-83
2023/06/04 03:04:01;;;;;;;;;8.00;6.67;;;;;18.91;44.00;100940.38;6258679;22;45402;-84
2023/06/04 03:06:26;;;;;;;;;6.00;6.00;;;;;18.79;44.29;100938.78;6257400;22;45147;-84
2023/06/04 03:08:52;;;;;;;;;5.33;5.00;;;;;18.75;44.39;100942.41;6257224;22;45328;-84
2023/06/04 03:11:21;;;;;;;;;7.00;5.00;;;;;18.70;44.48;100936.19;6257092;22;45299;-83
2023/06/04 03:13:53;;;;;;;;;6.00;5.33;;;;;18.77;44.89;100942.38;6231389;22;45312;-83
2023/06/04 03:16:19;;;;;;;;;5.67;5.67;;;;;18.64;44.87;100941.69;6231416;22;47142;-85
2023/06/04 03:18:45;;;;;;;;;4.00;4.00;;;;;18.57;45.17;100938.19;6258931;22;45330;-85
2023/06/04 03:21:11;;;;;;;;;5.33;4.67;;;;;18.52;45.04;100932.00;6231899;22;45452;-84
2023/06/04 03:23:37;;;;;;;;;6.67;5.67;;;;;18.47;45.20;100931.19;6231550;22;45337;-84
2023/06/04 03:26:04;;;;;;;;;6.00;6.00;;;;;18.50;45.30;100933.84;6231192;22;46790;-84
2023/06/04 03:28:42;;;;;;;;;6.67;6.00;;;;;18.43;45.49;100932.16;6258067;22;44817;-85
2023/06/04 03:31:07;;;;;;;;;6.00;6.00;;;;;18.39;45.14;100936.69;6259059;22;45311;-84
2023/06/04 03:33:33;;;;;;;;;4.00;4.00;;;;;18.38;45.32;100939.41;6231469;22;45438;-85
2023/06/04 03:35:58;;;;;;;;;5.33;5.33;;;;;18.31;45.61;100938.59;6258670;22;45261;-84
2023/06/04 03:38:25;;;;;;;;;7.00;7.00;;;;;18.24;45.86;100934.22;6260554;22;45200;-84
2023/06/04 03:40:52;;;;;;;;;6.67;5.67;;;;;18.18;45.67;100934.31;6258035;22;45493;-85
2023/06/04 03:43:21;;;;;;;;;6.33;6.33;;;;;18.23;45.93;100939.63;6259090;22;45615;-85
2023/06/04 03:45:47;;;;;;;;;6.00;6.00;;;;;18.09;45.73;100929.94;6258162;22;45143;-85
2023/06/04 03:48:12;;;;;;;;;4.67;4.67;;;;;18.12;46.45;100945.19;6256431;22;45858;-85
2023/06/04 03:50:37;;;;;;;;;5.00;5.00;;;;;18.06;46.20;100943.44;6230737;22;44980;-84
2023/06/04 03:53:06;;;;;;;;;3.67;3.67;;;;;18.03;46.45;100942.59;6256114;22;45429;-85
2023/06/04 03:55:34;;;;;;;;;3.33;3.33;;;;;18.03;46.48;100948.84;6257871;22;46998;-84
2023/06/04 03:58:01;;;;;;;;;4.00;4.00;;;;;18.07;46.64;100947.91;6258100;22;45343;-84
2023/06/04 04:00:27;;;;;;;;;5.33;5.33;;;;;18.03;46.71;100950.66;6258159;22;45371;-84
2023/06/04 04:02:52;;;;;;;;;5.67;4.67;;;;;18.05;46.66;100954.22;6257894;22;45401;-84
2023/06/04 04:05:17;;;;;;;;;5.00;5.00;;;;;17.97;46.60;100941.75;6258256;22;46751;-84
2023/06/04 04:07:47;;;;;;;;;6.67;6.67;;;;;18.03;46.48;100938.09;6258406;22;45418;-84
2023/06/04 04:10:13;;;;;;;;;7.33;6.33;;;;;18.03;46.24;100950.66;6258374;22;44750;-84
2023/06/04 04:12:38;;;;;;;;;4.00;4.00;;;;;18.00;46.45;100951.59;6258222;22;45425;-84
2023/06/04 04:15:07;;;;;;;;;6.33;4.33;;;;;18.05;46.42;100960.50;6259576;22;45186;-84
2023/06/04 04:17:32;;;;;;;;;7.33;5.00;;;;;18.07;46.48;100958.66;6258235;22;45327;-83
2023/06/04 04:19:58;;;;;;;;;6.00;6.00;;;;;18.10;46.47;100964.03;6260536;22;44738;-84
2023/06/04 04:22:23;;;;;;;;;5.00;5.00;;;;;18.10;46.46;100955.97;6257974;22;45411;-83
2023/06/04 04:24:49;;;;;;;;;5.00;4.00;;;;;18.13;46.30;100958.59;6254211;22;46955;-84
2023/06/04 04:27:15;;;;;;;;;7.00;6.00;;;;;18.07;46.12;100947.91;6256893;22;45705;-84
2023/06/04 04:29:50;;;;;;;;;5.00;5.00;;;;;18.14;46.35;100948.75;6255647;22;44733;-84
2023/06/04 04:32:16;;;;;;;;;6.67;4.00;;;;;18.21;46.29;100949.53;6253464;22;45660;-84
2023/06/04 04:34:51;;;;;;;;;5.00;3.00;;;;;18.38;46.26;100952.88;6255209;22;45216;-84
2023/06/04 04:37:20;;;;;;;;;3.67;3.67;;;;;18.35;46.53;100952.91;6255333;22;45280;-84
2023/06/04 04:39:49;;;;;;;;;5.00;5.00;;;;;18.39;46.31;100960.03;6228895;22;44869;-84
2023/06/04 04:42:15;;;;;;;;;5.67;5.33;;;;;18.38;46.01;100955.56;6229161;22;45288;-84
2023/06/04 04:44:40;;;;;;;;;5.00;5.00;;;;;18.41;45.87;100960.91;6229845;22;47186;-84
2023/06/04 04:47:06;;;;;;;;;5.00;4.33;;;;;18.43;46.31;100964.47;6228987;22;45368;-84
2023/06/04 04:49:33;;;;;;;;;5.00;5.00;;;;;18.59;46.35;100966.00;6227991;22;44718;-83
2023/06/04 04:51:58;;;;;;;;;6.00;4.00;;;;;18.57;45.80;100959.75;6256745;22;45357;-83
2023/06/04 04:54:23;;;;;;;;;5.00;5.00;;;;;18.69;45.63;100966.75;6257312;22;45343;-83
2023/06/04 04:56:49;;;;;;;;;6.33;5.67;;;;;18.74;45.92;100961.28;6256011;22;45351;-83
2023/06/04 04:59:17;;;;;;;;;5.33;4.67;;;;;18.73;46.01;100960.41;6258006;22;45227;-84
2023/06/04 05:01:43;;;;;;;;;4.00;4.00;;;;;18.80;45.65;100961.22;6257827;22;45450;-84
2023/06/04 05:04:08;;;;;;;;;5.00;5.00;;;;;18.93;45.85;100972.69;6230132;22;48005;-84
2023/06/04 05:06:36;;;;;;;;;7.33;5.33;;;;;19.02;45.40;100974.34;6256564;22;45276;-84
2023/06/04 05:09:02;;;;;;;;;6.67;4.00;;;;;19.10;45.35;100975.09;6253915;22;45298;-84
2023/06/04 05:11:27;;;;;;;;;6.00;6.00;;;;;19.18;45.33;100976.72;6228807;22;45456;-84
2023/06/04 05:13:53;;;;;;;;;5.33;5.33;;;;;19.20;45.28;100971.31;6253999;22;46688;-84
2023/06/04 05:16:20;;;;;;;;;4.33;4.00;;;;;19.28;45.35;100980.16;6228808;22;45340;-84
2023/06/04 05:18:45;;;;;;;;;5.67;5.33;;;;;19.31;45.50;100974.72;6253205;22;45380;-84
2023/06/04 05:21:14;;;;;;;;;8.67;5.33;;;;;19.41;45.20;100979.94;6225555;22;45255;-84
2023/06/04 05:23:39;;;;;;;;;5.00;5.00;;;;;19.47;45.05;100978.03;6226632;22;46666;-84
2023/06/04 05:26:06;;;;;;;;;5.00;5.00;;;;;19.57;44.80;100962.53;6252582;22;45348;-84
2023/06/04 05:28:34;;;;;;;;;7.00;7.00;;;;;19.70;44.54;100974.88;6253838;22;45188;-84
2023/06/04 05:31:00;;;;;;;;;2.00;0.33;;;;;19.82;44.27;100987.25;6227031;22;45311;-84
2023/06/04 05:33:30;;;;;;;;;4.33;3.33;;;;;19.89;44.08;100983.50;6203775;22;47289;-84
2023/06/04 05:35:57;;;;;;;;;6.33;5.00;;;;;19.99;44.04;100993.19;6224087;22;45783;-84
2023/06/04 05:38:25;;;;;;;;;5.00;5.00;;;;;20.12;44.01;100990.25;6196602;22;45138;-84
2023/06/04 05:40:52;;;;;;;;;5.33;5.33;;;;;20.21;43.60;100981.06;6196281;22;45405;-84
2023/06/04 05:43:17;;;;;;;;;5.67;5.33;;;;;20.28;43.37;100982.69;6195885;22;47229;-84
2023/06/04 05:45:43;;;;;;;;;4.00;4.00;;;;;20.37;42.83;100985.19;6220932;22;45406;-84
2023/06/04 05:48:08;;;;;;;;;7.00;5.33;;;;;20.39;42.86;100976.13;6196846;22;45312;-84
2023/06/04 05:50:34;;;;;;;;;5.00;5.00;;;;;20.52;42.99;100992.97;6224911;22;44748;-84
2023/06/04 05:53:00;;;;;;;;;4.00;4.00;;;;;20.59;42.14;100982.91;6197680;22;47743;-84
2023/06/04 05:56:16;;;;;;;;;5.00;5.00;;;;;20.76;42.21;100991.53;6224645;22;45373;-83
2023/06/04 05:58:41;;;;;;;;;3.67;3.67;;;;;20.83;42.20;100986.84;6222966;22;44750;-83
2023/06/04 06:01:07;;;;;;;;;4.00;4.00;;;;;20.96;42.29;100996.41;6225649;22;45291;-83
2023/06/04 06:03:33;;;;;;;;;3.00;2.33;;;;;21.13;41.82;101008.66;6197790;22;46476;-83
2023/06/04 06:06:02;;;;;;;;;3.33;3.33;;;;;21.25;41.95;100999.31;6222379;22;45446;-83
2023/06/04 06:08:27;;;;;;;;;3.67;3.67;;;;;21.28;41.89;101001.94;6220978;22;45266;-83
2023/06/04 06:10:53;;;;;;;;;5.00;4.00;;;;;21.36;41.36;100992.69;6195598;22;45234;-84
2023/06/04 06:13:18;;;;;;;;;6.67;4.33;;;;;21.42;41.54;100998.88;6196746;22;47905;-84
2023/06/04 06:15:45;;;;;;;;;7.67;4.67;;;;;21.58;41.60;101011.09;6223964;22;45451;-84
2023/06/04 06:18:11;;;;;;;;;3.67;3.67;;;;;21.68;41.48;101015.31;6223425;22;45236;-84
2023/06/04 06:20:36;;;;;;;;;3.00;3.00;;;;;21.81;41.00;101010.44;6222232;22;45350;-83
2023/06/04 06:23:07;;;;;;;;;4.67;4.00;;;;;21.95;41.15;101010.94;6223607;22;45269;-83
2023/06/04 06:25:33;;;;;;;;;4.33;4.33;;;;;21.82;39.91;101004.13;6225246;22;45485;-83
2023/06/04 06:27:58;;;;;;;;;4.00;4.00;;;;;21.83;39.21;101013.13;6223784;22;45395;-84
2023/06/04 06:30:24;;;;;;;;;4.00;2.67;;;;;21.72;38.87;101008.91;6221058;22;44920;-84
2023/06/04 06:32:50;;;;;;;;;1.00;1.00;;;;;21.75;39.63;101016.03;6224722;22;46159;-84
2023/06/04 06:35:17;;;;;;;;;3.33;3.33;;;;;21.84;38.31;101015.78;6224883;22;45698;-83
2023/06/04 06:37:43;;;;;;;;;2.00;2.00;;;;;21.72;38.31;101014.31;6221648;22;45286;-83
2023/06/04 06:40:13;;;;;;;;;4.33;3.00;;;;;21.68;38.35;101012.63;6196630;22;45319;-85
2023/06/04 06:42:38;;;;;;;;;2.67;2.33;;;;;21.60;38.44;101009.22;6222572;22;45567;-83
2023/06/04 06:45:06;;;;;;;;;5.00;4.00;;;;;21.77;38.92;101022.28;6196117;22;45279;-84
2023/06/04 06:47:31;;;;;;;;;5.67;3.33;;;;;21.68;38.36;101015.31;6222149;22;45428;-83
2023/06/04 06:49:57;;;;;;;;;4.00;4.00;;;;;21.64;38.23;101032.59;6225414;22;45264;-84
2023/06/04 06:52:22;;;;;;;;;3.00;3.00;;;;;21.52;38.32;101031.09;6197773;22;46622;-83
2023/06/04 06:54:48;;;;;;;;;4.00;3.67;;;;;21.48;38.72;101023.09;6222958;22;45932;-83
2023/06/04 06:57:13;;;;;;;;;4.33;4.33;;;;;21.61;38.52;101021.81;6224956;22;45318;-83
2023/06/04 06:59:42;;;;;;;;;3.67;3.67;;;;;21.72;38.51;101025.13;6197839;22;45577;-82
2023/06/04 07:02:08;;;;;;;;;2.33;2.33;;;;;21.86;38.40;101021.16;6196527;22;45520;-83
2023/06/04 07:04:34;;;;;;;;;1.67;1.67;;;;;21.83;38.38;101018.53;6224152;22;45605;-84
2023/06/04 07:06:59;;;;;;;;;2.67;2.67;;;;;22.02;38.63;101022.50;6227651;22;44811;-84
2023/06/04 07:09:26;;;;;;;;;4.00;2.00;;;;;22.17;37.98;101024.75;6226201;22;45762;-83
2023/06/04 07:11:51;;;;;;;;;4.00;4.00;;;;;22.13;38.20;101023.06;6199701;22;45225;-84
2023/06/04 07:21:00;;;;;;;;;3.00;3.00;;;;;22.00;38.41;101027.06;6226622;22;45363;-83
2023/06/04 07:23:25;;;;;;;;;5.33;4.00;;;;;22.10;37.82;101031.28;6226600;22;46830;-83
2023/06/04 07:25:51;;;;;;;;;1.67;1.67;;;;;22.10;38.10;101025.00;6224481;22;45344;-83
2023/06/04 07:28:17;;;;;;;;;4.00;3.00;;;;;22.13;38.00;101016.75;6225034;22;45434;-84
2023/06/04 07:30:44;;;;;;;;;5.00;5.00;;;;;22.28;38.25;101026.28;6223844;22;45452;-84
2023/06/04 07:33:10;;;;;;;;;2.00;2.00;;;;;22.27;38.22;101032.66;6225188;22;46731;-84
2023/06/04 07:35:35;;;;;;;;;4.00;4.00;;;;;22.20;37.96;101031.91;6199769;22;44804;-84
2023/06/04 07:38:00;;;;;;;;;3.00;3.00;;;;;22.12;37.85;101032.13;6227639;22;45361;-83
2023/06/04 07:40:26;;;;;;;;;4.00;4.00;;;;;22.21;38.05;101027.38;6203606;22;44770;-84
2023/06/04 07:42:54;;;;;;;;;4.00;4.00;;;;;22.31;38.03;101018.06;6201987;22;47098;-84
2023/06/04 07:45:20;;;;;;;;;4.33;4.00;;;;;22.37;37.86;101029.59;6229634;22;44864;-83
2023/06/04 07:47:46;;;;;;;;;5.33;4.00;;;;;22.51;37.84;101026.47;6228008;22;45282;-85
2023/06/04 07:50:11;;;;;;;;;4.00;4.00;;;;;22.66;37.63;101029.63;6201722;22;45383;-83
2023/06/04 07:52:41;;;;;;;;;2.00;2.00;;;;;22.79;37.51;101031.03;6228912;22;45966;-84
2023/06/04 07:55:08;;;;;;;;;3.33;3.33;;;;;22.74;37.49;101004.06;6228080;22;44638;-83
2023/06/04 07:57:34;;;;;;;;;0.33;0.33;;;;;22.85;37.35;101013.69;6227089;22;45386;-83
2023/06/04 07:59:59;;;;;;;;;4.00;4.00;;;;;22.88;37.09;101024.41;6200307;22;45222;-83
2023/06/04 08:02:25;;;;;;;;;4.00;2.67;;;;;22.91;37.33;101024.34;6199234;22;47023;-83
2023/06/04 08:04:58;;;;;;;;;4.00;4.00;;;;;22.85;37.08;101020.00;6224316;22;45462;-84
2023/06/04 08:07:23;;;;;;;;;3.00;3.00;;;;;22.83;37.19;101011.00;6199819;22;45341;-83
2023/06/04 08:09:49;;;;;;;;;5.00;5.00;;;;;22.91;37.43;101014.34;6198805;22;45346;-83
2023/06/04 08:12:16;;;;;;;;;5.67;4.67;;;;;23.01;37.47;101020.38;6220701;22;45397;-83
2023/06/04 08:14:42;;;;;;;;;6.00;6.00;;;;;23.07;36.98;101013.91;6227040;22;45331;-83
2023/06/04 08:17:07;;;;;;;;;4.00;4.00;;;;;23.05;37.21;100999.50;6223942;22;45394;-83
2023/06/04 08:19:36;;;;;;;;;5.33;5.33;;;;;23.13;37.45;101011.84;6226583;22;45666;-83
2023/06/04 08:22:02;;;;;;;;;2.67;2.67;;;;;23.21;37.49;101006.19;6223333;22;46821;-83
2023/06/04 08:24:27;;;;;;;;;5.33;4.33;;;;;23.25;36.63;101018.69;6224537;22;46092;-84
2023/06/04 08:26:52;;;;;;;;;3.00;3.00;;;;;23.29;37.22;101009.50;6197640;22;44691;-84
2023/06/04 08:29:18;;;;;;;;;3.00;3.00;;;;;23.51;37.03;101017.78;6199626;22;45510;-84
2023/06/04 08:31:44;;;;;;;;;2.00;2.00;;;;;23.63;36.64;101016.47;6224806;22;47648;-84
2023/06/04 08:34:10;;;;;;;;;3.67;3.67;;;;;23.63;36.55;101013.75;6252804;22;45774;-83
2023/06/04 08:36:35;;;;;;;;;3.00;3.00;;;;;23.69;36.71;101018.06;6229920;22;45259;-83
2023/06/04 08:39:47;;;;;;;;;4.00;4.00;;;;;23.82;37.14;101007.69;6257522;22;45473;-84
2023/06/04 08:42:26;;;;;;;;;3.00;3.00;;;;;23.84;36.31;101012.13;6256937;22;46718;-83
2023/06/04 08:44:57;;;;;;;;;6.67;6.67;;;;;23.89;36.81;101004.66;6257976;22;45271;-83
2023/06/04 08:47:24;;;;;;;;;4.33;3.33;;;;;23.93;37.04;101008.16;6231183;22;44757;-83
2023/06/04 08:49:53;;;;;;;;;5.00;5.00;;;;;23.87;36.07;101008.38;6256437;22;45485;-83
2023/06/04 08:52:21;;;;;;;;;3.33;3.33;;;;;23.97;36.42;101017.97;6230430;22;48753;-83
2023/06/04 08:54:50;;;;;;;;;5.00;5.00;;;;;24.00;35.99;101015.16;6230352;22;45862;-83
2023/06/04 08:57:18;;;;;;;;;3.00;3.00;;;;;23.98;36.23;101014.31;6255211;22;45390;-83
2023/06/04 08:59:46;;;;;;;;;5.00;5.00;;;;;24.03;36.49;101006.88;6256744;22;45276;-84
2023/06/04 09:02:15;;;;;;;;;4.00;4.00;;;;;24.06;35.67;101005.88;6227633;22;47128;-84
2023/06/04 09:04:42;;;;;;;;;4.00;4.00;;;;;24.11;35.19;101021.03;6257197;22;45357;-83
2023/06/04 09:07:16;;;;;;;;;2.67;2.67;;;;;24.21;35.24;101015.28;6257588;22;45421;-83
2023/06/04 09:09:46;;;;;;;;;3.67;3.67;;;;;24.19;34.97;101006.28;6258178;22;45379;-84
2023/06/04 09:12:21;;;;;;;;;2.00;2.00;;;;;24.23;34.57;101003.38;6256448;22;45149;-83
2023/06/04 09:14:52;;;;;;;;;5.00;4.00;;;;;24.33;33.48;100996.66;6255265;22;45229;-84
2023/06/04 09:17:22;;;;;;;;;8.67;8.67;;;;;24.43;33.04;100999.03;6256863;22;45437;-84
2023/06/04 09:19:51;;;;;;;;;3.67;3.67;;;;;24.42;33.07;100992.69;6228924;22;45343;-84
2023/06/04 09:22:17;;;;;;;;;3.33;3.33;;;;;24.38;33.26;100991.06;6256016;22;45345;-84
2023/06/04 09:24:52;;;;;;;;;4.67;3.00;;;;;24.50;33.57;101006.00;6256450;22;44818;-84
2023/06/04 09:27:21;;;;;;;;;3.67;3.67;;;;;24.55;33.57;100995.84;6228994;22;45225;-84
2023/06/04 09:29:55;;;;;;;;;4.00;4.00;;;;;24.62;33.33;100993.75;6230610;22;45280;-84
2023/06/04 09:32:26;;;;;;;;;3.00;3.00;;;;;24.58;32.28;100992.97;6251139;22;47218;-83
2023/06/04 09:34:53;;;;;;;;;4.33;4.33;;;;;24.48;32.73;100986.09;6199435;22;45425;-83
2023/06/04 09:37:18;;;;;;;;;3.00;3.00;;;;;24.55;32.80;100995.84;6224961;22;45376;-83
2023/06/04 09:39:53;;;;;;;;;3.33;3.00;;;;;24.74;32.39;100995.97;6198542;22;44805;-83
2023/06/04 09:42:19;;;;;;;;;3.00;3.00;;;;;24.70;31.17;100997.03;6225815;22;45399;-83
2023/06/04 09:44:45;;;;;;;;;3.00;3.00;;;;;24.73;32.05;100991.50;6199707;22;45382;-83
2023/06/04 09:47:11;;;;;;;;;3.00;3.00;;;;;24.77;31.00;101004.03;6224551;22;45342;-82
2023/06/04 09:49:47;;;;;;;;;4.33;4.33;;;;;24.78;31.22;100997.63;6224159;22;45491;-83
2023/06/04 09:52:13;;;;;;;;;2.67;2.67;;;;;24.82;31.55;100998.38;6225272;22;47259;-84
2023/06/04 09:54:41;;;;;;;;;4.00;2.33;;;;;24.82;31.50;100990.22;6225801;22;45330;-84
2023/06/04 09:57:18;;;;;;;;;3.00;3.00;;;;;24.99;30.39;101000.41;6199446;22;45776;-83
2023/06/04 09:59:47;;;;;;;;;4.00;4.00;;;;;24.97;31.13;101005.91;6226483;22;44755;-83
2023/06/04 10:02:13;;;;;;;;;3.00;3.00;;;;;24.97;30.51;100995.03;6226169;22;47268;-83
2023/06/04 10:04:48;;;;;;;;;3.00;3.00;;;;;24.96;29.63;100990.53;6225736;22;45784;-84
2023/06/04 10:07:15;;;;;;;;;3.00;3.00;;;;;24.84;29.72;100991.91;6226731;22;45348;-83
2023/06/04 10:09:45;;;;;;;;;3.00;3.00;;;;;24.89;30.27;101021.69;6228349;22;45291;-83
2023/06/04 10:12:15;;;;;;;;;4.67;4.67;;;;;24.87;29.02;101015.41;6201039;22;46951;-83
2023/06/04 10:14:55;;;;;;;;;3.00;2.00;;;;;24.98;29.91;101023.13;6201154;22;45382;-84
2023/06/04 10:17:24;;;;;;;;;5.00;3.00;;;;;24.95;29.28;101014.13;6201008;22;45356;-84
2023/06/04 10:19:54;;;;;;;;;3.00;3.00;;;;;24.95;28.78;101007.81;6226036;22;45629;-84
2023/06/04 10:22:22;;;;;;;;;3.33;3.33;;;;;24.93;29.42;100999.72;6224710;22;45375;-84
2023/06/04 10:24:48;;;;;;;;;2.00;2.00;;;;;25.01;28.82;100993.97;6199817;22;45357;-84
2023/06/04 10:27:16;;;;;;;;;3.67;3.67;;;;;25.03;29.08;101007.50;6223886;22;45415;-84
2023/06/04 10:29:44;;;;;;;;;3.67;3.00;;;;;25.08;28.59;100994.56;6198478;22;45383;-84
2023/06/04 10:32:10;;;;;;;;;2.33;2.33;;;;;25.07;28.11;101000.97;6225986;22;46217;-84
2023/06/04 10:34:36;;;;;;;;;5.67;4.00;;;;;25.12;28.96;101005.25;6225061;22;45427;-84
2023/06/04 10:37:03;;;;;;;;;3.33;2.33;;;;;25.18;29.20;101008.69;6198028;22;45398;-84
2023/06/04 10:39:32;;;;;;;;;3.33;3.33;;;;;25.31;28.65;101007.25;6198916;22;45364;-84
2023/06/04 10:42:47;;;;;;;;;2.00;2.00;;;;;25.43;28.57;101004.00;6223025;22;45351;-84
2023/06/04 10:45:12;;;;;;;;;4.00;4.00;;;;;25.29;27.66;100996.41;6226520;22;44858;-84
2023/06/04 10:47:40;;;;;;;;;3.00;3.00;;;;;25.22;27.88;101005.78;6198192;22;44766;-84
2023/06/04 10:50:11;;;;;;;;;3.67;3.67;;;;;25.25;28.58;100993.88;6200945;22;45399;-84
2023/06/04 10:52:39;;;;;;;;;5.00;4.00;;;;;25.29;28.48;100993.69;6200089;22;46725;-84
2023/06/04 10:55:09;;;;;;;;;4.67;2.67;;;;;25.38;28.99;101005.13;6226826;22;45494;-84
2023/06/04 10:57:35;;;;;;;;;4.33;4.33;;;;;25.24;29.50;101014.78;6200507;22;45315;-84
2023/06/04 11:00:03;;;;;;;;;4.67;4.67;;;;;25.25;29.48;101007.47;6200494;22;45288;-84
2023/06/04 11:02:29;;;;;;;;;4.33;4.33;;;;;25.19;29.61;101000.47;6225244;22;45397;-84
2023/06/04 11:05:06;;;;;;;;;3.00;3.00;;;;;25.30;29.71;101003.63;6201054;22;45767;-84
2023/06/04 11:07:43;;;;;;;;;2.67;2.67;;;;;25.34;28.43;100988.91;6225186;22;45297;-84
2023/06/04 11:10:10;;;;;;;;;4.67;3.00;;;;;25.25;28.76;100996.59;6199772;22;45491;-84
2023/06/04 11:12:50;;;;;;;;;4.33;3.67;;;;;25.42;29.01;101006.78;6225409;22;45327;-84
2023/06/04 11:15:18;;;;;;;;;3.00;3.00;;;;;25.44;28.55;101007.59;6225538;22;45398;-84
2023/06/04 11:17:58;;;;;;;;;4.00;4.00;;;;;25.42;28.40;101017.66;6201565;22;45435;-84
2023/06/04 11:20:23;;;;;;;;;4.67;4.67;;;;;25.29;27.72;101009.16;6226845;22;45368;-84
2023/06/04 11:22:56;;;;;;;;;3.00;3.00;;;;;25.42;27.82;101024.00;6227123;22;45543;-84
2023/06/04 11:25:23;;;;;;;;;5.33;5.00;;;;;25.24;26.72;101022.94;6228500;22;45481;-84
2023/06/04 11:27:50;;;;;;;;;2.00;2.00;;;;;25.23;27.40;101014.84;6227554;22;45272;-84
2023/06/04 11:30:16;;;;;;;;;4.00;4.00;;;;;25.21;27.35;101016.69;6230282;22;45455;-84
2023/06/04 11:32:41;;;;;;;;;1.67;1.67;;;;;25.25;28.27;101005.69;6200801;22;47948;-84
2023/06/04 11:35:07;;;;;;;;;3.67;3.67;;;;;25.39;27.41;101006.91;6200270;22;45301;-84